createdAt,value
2022-10-16T00:01:29.347Z,1.83
2022-10-16T00:03:59.890Z,2.00
2022-10-16T00:08:56.942Z,1.90
2022-10-16T00:11:27.227Z,1.90
2022-10-16T00:13:58.565Z,1.88
2022-10-16T00:16:27.624Z,2.13
2022-10-16T00:18:55.916Z,1.90
2022-10-16T00:21:27.694Z,1.80
2022-10-16T00:23:57.892Z,2.28
2022-10-16T00:26:35.170Z,1.95
2022-10-16T00:29:03.588Z,1.80
2022-10-16T00:31:32.277Z,2.00
2022-10-16T00:34:01.413Z,1.88
2022-10-16T00:36:31.655Z,1.80
2022-10-16T00:41:35.092Z,1.70
2022-10-16T00:44:05.414Z,1.80
2022-10-16T00:46:39.402Z,1.75
2022-10-16T00:49:10.472Z,1.63
2022-10-16T00:51:41.706Z,2.25
2022-10-16T00:54:14.419Z,1.80
2022-10-16T00:56:42.999Z,1.92
2022-10-16T00:59:15.552Z,1.75
2022-10-16T01:01:43.791Z,1.60
2022-10-16T01:04:11.984Z,1.65
2022-10-16T01:06:47.187Z,1.80
2022-10-16T01:09:18.815Z,1.70
2022-10-16T01:11:51.955Z,1.60
2022-10-16T01:14:24.636Z,1.70
2022-10-16T01:16:57.579Z,1.75
2022-10-16T01:19:38.961Z,1.70
2022-10-16T01:22:10.227Z,1.80
2022-10-16T01:24:41.774Z,1.63
2022-10-16T01:27:13.586Z,1.80
2022-10-16T01:29:47.341Z,1.65
2022-10-16T01:32:19.536Z,1.70
2022-10-16T01:34:53.215Z,1.70
2022-10-16T01:37:28.366Z,1.85
2022-10-16T01:39:58.363Z,1.92
2022-10-16T01:42:31.236Z,1.53
2022-10-16T01:45:01.005Z,1.70
2022-10-16T01:47:29.666Z,1.80
2022-10-16T01:50:00.120Z,1.83
2022-10-16T01:52:29.376Z,2.00
2022-10-16T01:54:58.843Z,1.60
2022-10-16T01:57:29.481Z,1.70
2022-10-16T02:02:29.000Z,1.60
2022-10-16T02:07:27.528Z,1.73
2022-10-16T02:09:56.330Z,1.80
2022-10-16T02:12:29.771Z,1.80
2022-10-16T02:14:58.656Z,1.70
2022-10-16T02:17:27.482Z,1.80
2022-10-16T02:19:57.065Z,1.77
2022-10-16T02:22:29.808Z,1.70
2022-10-16T02:25:00.901Z,1.63
2022-10-16T02:27:36.299Z,1.75
2022-10-16T02:30:09.738Z,1.65
2022-10-16T02:32:40.242Z,1.80
2022-10-16T02:37:37.433Z,2.28
2022-10-16T02:40:07.231Z,2.28
2022-10-16T02:42:37.875Z,1.70
2022-10-16T02:47:34.694Z,1.70
2022-10-16T02:50:03.403Z,2.00
2022-10-16T02:52:31.683Z,1.90
2022-10-16T02:54:59.971Z,1.63
2022-10-16T02:57:28.668Z,1.75
2022-10-16T02:59:58.424Z,2.47
2022-10-16T03:02:26.722Z,1.73
2022-10-16T03:04:54.951Z,1.85
2022-10-16T03:07:23.437Z,2.00
2022-10-16T03:09:51.910Z,2.10
2022-10-16T03:12:20.221Z,1.90
2022-10-16T03:14:49.402Z,2.00
2022-10-16T03:17:18.976Z,2.10
2022-10-16T03:19:47.149Z,2.40
2022-10-16T03:22:15.394Z,2.20
2022-10-16T03:24:43.727Z,2.03
2022-10-16T03:27:11.907Z,2.00
2022-10-16T03:29:40.159Z,1.92
2022-10-16T03:32:08.321Z,1.90
2022-10-16T03:34:37.834Z,2.20
2022-10-16T03:37:06.055Z,2.00
2022-10-16T03:39:34.230Z,1.95
2022-10-16T03:42:02.459Z,1.73
2022-10-16T03:44:30.746Z,2.22
2022-10-16T03:46:58.994Z,2.00
2022-10-16T03:49:27.228Z,1.75
2022-10-16T03:51:56.732Z,1.83
2022-10-16T03:54:24.903Z,1.88
2022-10-16T03:56:53.134Z,1.85
2022-10-16T03:59:21.394Z,1.95
2022-10-16T04:01:49.574Z,1.92
2022-10-16T04:04:17.826Z,1.80
2022-10-16T04:06:46.265Z,1.85
2022-10-16T04:09:16.133Z,1.50
2022-10-16T04:11:44.465Z,1.65
2022-10-16T04:14:12.656Z,1.80
2022-10-16T04:16:40.821Z,1.90
2022-10-16T04:19:09.055Z,1.70
2022-10-16T04:21:37.241Z,1.90
2022-10-16T04:24:05.817Z,1.90
2022-10-16T04:26:35.497Z,2.10
2022-10-16T04:29:03.824Z,3.20
2022-10-16T04:31:32.115Z,1.80
2022-10-16T04:34:00.339Z,1.60
2022-10-16T04:36:29.380Z,1.92
2022-10-16T04:38:57.782Z,2.10
2022-10-16T04:41:26.049Z,2.00
2022-10-16T04:43:55.631Z,2.20
2022-10-16T04:46:23.913Z,1.73
2022-10-16T04:48:52.828Z,1.75
2022-10-16T04:51:21.021Z,1.60
2022-10-16T04:53:49.280Z,1.60
2022-10-16T04:56:18.081Z,1.50
2022-10-16T04:58:46.273Z,1.70
2022-10-16T05:01:15.930Z,1.80
2022-10-16T05:03:44.147Z,2.13
2022-10-16T05:06:12.310Z,1.60
2022-10-16T05:08:40.481Z,1.40
2022-10-16T05:11:08.647Z,1.40
2022-10-16T05:13:36.866Z,1.65
2022-10-16T05:16:05.370Z,1.70
2022-10-16T05:18:34.989Z,1.75
2022-10-16T05:21:03.349Z,1.77
2022-10-16T05:23:31.653Z,1.85
2022-10-16T05:26:00.953Z,1.80
2022-10-16T05:28:30.161Z,1.95
2022-10-16T05:30:58.749Z,1.70
2022-10-16T05:33:27.774Z,1.90
2022-10-16T05:35:57.361Z,1.90
2022-10-16T05:38:25.585Z,1.90
2022-10-16T05:40:54.205Z,2.10
2022-10-16T05:43:22.433Z,1.90
2022-10-16T05:45:56.782Z,1.95
2022-10-16T05:48:25.146Z,1.80
2022-10-16T05:51:00.542Z,1.70
2022-10-16T05:53:29.874Z,2.00
2022-10-16T05:55:58.844Z,1.90
2022-10-16T05:58:28.342Z,1.75
2022-10-16T06:00:57.397Z,1.90
2022-10-16T06:03:25.936Z,1.90
2022-10-16T06:05:55.101Z,2.33
2022-10-16T06:08:25.325Z,2.30
2022-10-16T06:11:02.952Z,2.35
2022-10-16T06:13:31.145Z,1.90
2022-10-16T06:16:00.327Z,2.15
2022-10-16T06:18:28.821Z,2.20
2022-10-16T06:20:57.756Z,2.90
2022-10-16T06:23:30.325Z,2.67
2022-10-16T06:26:06.589Z,2.65
2022-10-16T06:28:34.975Z,3.15
2022-10-16T06:31:12.188Z,3.08
2022-10-16T06:33:53.266Z,2.58
2022-10-16T06:38:51.622Z,2.40
2022-10-16T06:41:21.725Z,2.10
2022-10-16T06:43:50.175Z,2.38
2022-10-16T06:46:19.648Z,2.05
2022-10-16T06:48:48.737Z,2.20
2022-10-16T06:51:18.256Z,1.98
2022-10-16T06:54:02.348Z,2.13
2022-10-16T06:56:34.141Z,1.80
2022-10-16T07:01:30.515Z,1.92
2022-10-16T07:03:58.949Z,2.10
2022-10-16T07:06:28.346Z,2.08
2022-10-16T07:08:56.663Z,2.00
2022-10-16T07:11:26.107Z,1.88
2022-10-16T07:13:56.486Z,2.10
2022-10-16T07:18:58.748Z,1.98
2022-10-16T07:21:29.061Z,2.00
2022-10-16T07:24:00.139Z,2.10
2022-10-16T07:26:28.925Z,2.10
2022-10-16T07:28:58.931Z,3.10
2022-10-16T07:31:27.394Z,3.40
2022-10-16T07:33:56.386Z,3.58
2022-10-16T07:36:24.738Z,3.22
2022-10-16T07:38:55.522Z,3.20
2022-10-16T07:41:27.073Z,2.30
2022-10-16T07:43:55.870Z,2.17
2022-10-16T07:46:25.669Z,1.98
2022-10-16T07:48:54.192Z,1.70
2022-10-16T07:51:23.934Z,1.90
2022-10-16T07:53:52.187Z,1.77
2022-10-16T07:56:20.986Z,1.92
2022-10-16T07:58:50.737Z,1.95
2022-10-16T08:01:19.542Z,1.67
2022-10-16T08:03:50.245Z,1.85
2022-10-16T08:06:21.885Z,1.70
2022-10-16T08:08:53.601Z,2.00
2022-10-16T08:11:21.874Z,2.13
2022-10-16T08:13:50.132Z,1.80
2022-10-16T08:16:18.879Z,1.70
2022-10-16T08:18:47.151Z,1.65
2022-10-16T08:21:21.407Z,1.70
2022-10-16T08:23:54.614Z,1.70
2022-10-16T08:26:25.472Z,1.90
2022-10-16T08:28:53.961Z,2.03
2022-10-16T08:31:22.570Z,1.80
2022-10-16T08:33:50.914Z,2.05
2022-10-16T08:36:20.579Z,1.70
2022-10-16T08:38:50.811Z,1.92
2022-10-16T08:41:49.438Z,2.00
2022-10-16T08:44:29.543Z,1.90
2022-10-16T08:47:04.941Z,2.00
2022-10-16T08:49:33.381Z,2.17
2022-10-16T08:52:02.991Z,1.75
2022-10-16T08:54:34.878Z,2.13
2022-10-16T08:57:10.346Z,2.10
2022-10-16T08:59:39.109Z,2.00
2022-10-16T09:02:24.804Z,2.03
2022-10-16T09:05:02.321Z,2.10
2022-10-16T09:07:36.137Z,2.10
2022-10-16T09:10:23.810Z,2.10
2022-10-16T09:12:57.312Z,2.00
2022-10-16T09:15:31.626Z,2.22
2022-10-16T09:18:03.549Z,1.95
2022-10-16T09:20:36.855Z,2.00
2022-10-16T09:23:17.329Z,2.20
2022-10-16T09:28:14.243Z,1.80
2022-10-16T09:30:42.852Z,1.77
2022-10-16T09:33:12.459Z,1.65
2022-10-16T09:35:42.423Z,1.95
2022-10-16T09:38:11.111Z,1.67
2022-10-16T09:40:44.174Z,1.67
2022-10-16T09:43:22.899Z,1.80
2022-10-16T09:46:01.030Z,1.70
2022-10-16T09:48:33.992Z,1.90
2022-10-16T09:51:03.724Z,1.70
2022-10-16T09:53:41.294Z,1.80
2022-10-16T09:56:14.675Z,1.73
2022-10-16T09:58:52.323Z,1.75
2022-10-16T10:01:21.647Z,1.90
2022-10-16T10:03:51.127Z,2.00
2022-10-16T10:06:25.319Z,1.60
2022-10-16T10:09:02.552Z,1.83
2022-10-16T10:11:47.251Z,1.58
2022-10-16T10:14:24.910Z,1.80
2022-10-16T10:16:54.188Z,1.80
2022-10-16T10:19:25.420Z,1.73
2022-10-16T10:21:56.155Z,1.90
2022-10-16T10:24:24.386Z,1.90
2022-10-16T10:26:59.059Z,1.73
2022-10-16T10:29:33.450Z,1.65
2022-10-16T10:32:09.446Z,1.90
2022-10-16T10:34:52.930Z,1.65
2022-10-16T10:37:33.396Z,1.95
2022-10-16T10:40:10.441Z,1.70
2022-10-16T10:42:48.693Z,1.75
2022-10-16T10:45:25.742Z,1.83
2022-10-16T10:48:06.211Z,1.60
2022-10-16T10:50:40.779Z,1.65
2022-10-16T10:53:14.900Z,1.73
2022-10-16T10:55:48.175Z,1.83
2022-10-16T10:58:50.209Z,1.83
2022-10-16T11:01:20.051Z,1.90
2022-10-16T11:04:01.253Z,1.98
2022-10-16T11:06:32.756Z,1.70
2022-10-16T11:09:04.838Z,1.70
2022-10-16T11:11:36.789Z,1.80
2022-10-16T11:14:11.391Z,1.60
2022-10-16T11:16:42.306Z,1.40
2022-10-16T11:19:15.048Z,1.60
2022-10-16T11:21:49.535Z,1.70
2022-10-16T11:24:22.859Z,1.20
2022-10-16T11:26:52.577Z,1.10
2022-10-16T11:29:26.777Z,1.05
2022-10-16T11:31:57.939Z,1.00
2022-10-16T11:34:32.923Z,1.20
2022-10-16T11:37:10.005Z,1.20
2022-10-16T11:39:40.492Z,0.80
2022-10-16T11:42:13.514Z,1.00
2022-10-16T11:44:50.905Z,0.98
2022-10-16T11:47:54.096Z,1.00
2022-10-16T11:50:23.035Z,0.80
2022-10-16T11:52:55.940Z,1.00
2022-10-16T11:55:28.099Z,1.10
2022-10-16T12:01:06.084Z,1.10
2022-10-16T12:03:36.617Z,0.90
2022-10-16T12:06:15.327Z,0.98
2022-10-16T12:08:45.168Z,1.13
2022-10-16T12:11:25.632Z,0.93
2022-10-16T12:13:54.341Z,0.90
2022-10-16T12:16:25.611Z,0.80
2022-10-16T12:19:15.272Z,1.00
2022-10-16T12:21:43.886Z,0.90
2022-10-16T12:24:26.522Z,0.90
2022-10-16T12:26:57.229Z,0.90
2022-10-16T12:29:36.056Z,0.70
2022-10-16T12:32:08.250Z,0.80
2022-10-16T12:34:41.286Z,0.95
2022-10-16T12:37:12.559Z,1.00
2022-10-16T12:39:41.360Z,0.80
2022-10-16T12:42:24.416Z,0.90
2022-10-16T12:44:53.081Z,0.90
2022-10-16T12:47:24.434Z,0.70
2022-10-16T12:49:55.021Z,0.90
2022-10-16T12:52:28.898Z,1.10
2022-10-16T12:55:01.746Z,0.77
2022-10-16T12:57:40.417Z,0.85
2022-10-16T13:00:16.769Z,0.93
2022-10-16T13:02:57.639Z,0.68
2022-10-16T13:08:16.119Z,0.80
2022-10-16T13:10:56.188Z,0.75
2022-10-16T13:13:39.081Z,0.80
2022-10-16T13:16:16.723Z,0.85
2022-10-16T13:18:54.143Z,0.80
2022-10-16T13:21:33.618Z,0.70
2022-10-16T13:24:04.672Z,0.70
2022-10-16T13:26:39.255Z,0.80
2022-10-16T13:29:07.687Z,0.80
2022-10-16T13:31:36.091Z,0.77
2022-10-16T13:34:06.958Z,0.90
2022-10-16T13:36:38.191Z,0.90
2022-10-16T13:39:14.357Z,0.90
2022-10-16T13:41:42.937Z,0.70
2022-10-16T13:44:16.010Z,0.82
2022-10-16T13:46:44.317Z,1.00
2022-10-16T13:49:16.922Z,0.95
2022-10-16T13:51:56.359Z,0.80
2022-10-16T13:54:24.786Z,0.90
2022-10-16T13:57:03.566Z,0.90
2022-10-16T13:59:39.753Z,0.85
2022-10-16T14:02:17.173Z,0.80
2022-10-16T14:04:47.009Z,0.98
2022-10-16T14:07:21.365Z,0.77
2022-10-16T14:09:51.704Z,0.80
2022-10-16T14:12:21.931Z,0.90
2022-10-16T14:14:54.437Z,1.00
2022-10-16T14:17:25.012Z,0.70
2022-10-16T14:19:59.637Z,0.90
2022-10-16T14:22:34.269Z,0.70
2022-10-16T14:25:03.200Z,0.95
2022-10-16T14:27:35.021Z,0.80
2022-10-16T14:30:15.233Z,1.00
2022-10-16T14:32:44.457Z,0.90
2022-10-16T14:35:26.780Z,0.73
2022-10-16T14:37:55.714Z,0.60
2022-10-16T14:40:25.593Z,0.80
2022-10-16T14:42:54.353Z,1.00
2022-10-16T14:45:23.733Z,0.95
2022-10-16T14:47:54.235Z,1.00
2022-10-16T14:50:22.552Z,0.80
2022-10-16T14:52:52.650Z,0.88
2022-10-16T14:55:21.393Z,0.90
2022-10-16T14:57:49.920Z,0.90
2022-10-16T15:00:21.577Z,0.95
2022-10-16T15:02:50.694Z,0.95
2022-10-16T15:05:21.058Z,0.90
2022-10-16T15:07:50.064Z,0.88
2022-10-16T15:10:20.314Z,0.80
2022-10-16T15:15:27.815Z,1.00
2022-10-16T15:17:58.119Z,0.90
2022-10-16T15:22:55.262Z,1.00
2022-10-16T15:25:43.757Z,0.80
2022-10-16T15:28:13.167Z,0.85
2022-10-16T15:30:41.489Z,1.00
2022-10-16T15:33:15.343Z,1.00
2022-10-16T15:35:43.610Z,1.05
2022-10-16T15:38:14.683Z,1.40
2022-10-16T15:40:44.440Z,1.23
2022-10-16T15:43:12.757Z,1.50
2022-10-16T15:45:41.053Z,1.35
2022-10-16T15:48:12.661Z,1.30
2022-10-16T15:50:41.507Z,1.42
2022-10-16T15:53:10.693Z,1.50
2022-10-16T15:55:39.559Z,1.15
2022-10-16T15:58:09.321Z,1.25
2022-10-16T16:00:38.534Z,1.40
2022-10-16T16:03:07.320Z,1.60
2022-10-16T16:05:36.311Z,1.70
2022-10-16T16:08:04.601Z,1.95
2022-10-16T16:10:32.830Z,2.00
2022-10-16T16:13:01.047Z,1.60
2022-10-16T16:15:30.692Z,1.33
2022-10-16T16:17:58.937Z,1.33
2022-10-16T16:20:27.293Z,1.40
2022-10-16T16:22:55.535Z,1.60
2022-10-16T16:25:23.826Z,2.03
2022-10-16T16:27:52.116Z,1.88
2022-10-16T16:30:23.750Z,2.00
2022-10-16T16:32:58.584Z,2.75
2022-10-16T16:38:20.133Z,2.90
2022-10-16T16:40:49.936Z,3.05
2022-10-16T16:43:21.310Z,2.60
2022-10-16T16:45:49.487Z,2.75
2022-10-16T16:48:19.045Z,2.20
2022-10-16T16:50:47.487Z,2.47
2022-10-16T16:53:15.730Z,3.85
2022-10-16T16:55:43.911Z,3.35
2022-10-16T16:58:12.124Z,2.90
2022-10-16T17:00:56.558Z,2.47
2022-10-16T17:03:26.511Z,2.33
2022-10-16T17:05:58.390Z,2.33
2022-10-16T17:08:26.787Z,2.10
2022-10-16T17:10:56.032Z,2.10
2022-10-16T17:13:24.521Z,2.20
2022-10-16T17:15:53.502Z,2.08
2022-10-16T17:18:23.186Z,2.03
2022-10-16T17:20:52.737Z,2.17
2022-10-16T17:23:21.637Z,1.70
2022-10-16T17:25:49.891Z,2.22
2022-10-16T17:28:18.163Z,1.90
2022-10-16T17:30:46.388Z,1.90
2022-10-16T17:33:15.088Z,2.00
2022-10-16T17:35:45.936Z,2.20
2022-10-16T17:38:16.832Z,2.00
2022-10-16T17:40:45.038Z,1.92
2022-10-16T17:43:13.243Z,1.98
2022-10-16T17:45:41.449Z,1.77
2022-10-16T17:48:09.664Z,2.20
2022-10-16T17:50:41.358Z,1.67
2022-10-16T17:53:09.772Z,2.00
2022-10-16T17:55:40.783Z,2.10
2022-10-16T17:58:09.024Z,1.80
2022-10-16T18:00:37.443Z,1.83
2022-10-16T18:03:05.895Z,1.60
2022-10-16T18:05:34.084Z,1.70
2022-10-16T18:08:02.311Z,1.75
2022-10-16T18:10:31.006Z,1.90
2022-10-16T18:13:01.664Z,2.30
2022-10-16T18:15:30.110Z,4.65
2022-10-16T18:17:58.377Z,3.35
2022-10-16T18:20:26.587Z,5.65
2022-10-16T18:22:55.020Z,4.35
2022-10-16T18:25:23.193Z,2.50
2022-10-16T18:27:52.027Z,2.47
2022-10-16T18:30:24.558Z,3.28
2022-10-16T18:32:52.879Z,2.63
2022-10-16T18:35:21.094Z,2.00
2022-10-16T18:37:49.331Z,1.60
2022-10-16T18:40:17.534Z,1.80
2022-10-16T18:42:45.754Z,1.58
2022-10-16T18:45:13.992Z,2.13
2022-10-16T18:47:43.626Z,2.70
2022-10-16T18:50:12.056Z,2.47
2022-10-16T18:52:40.650Z,2.63
2022-10-16T18:55:10.629Z,2.60
2022-10-16T18:57:38.785Z,3.00
2022-10-16T19:00:08.387Z,2.80
2022-10-16T19:02:36.672Z,2.87
2022-10-16T19:05:07.583Z,2.72
2022-10-16T19:07:37.069Z,2.33
2022-10-16T19:10:05.958Z,2.25
2022-10-16T19:12:34.222Z,2.10
2022-10-16T19:15:02.450Z,2.38
2022-10-16T19:17:30.866Z,2.38
2022-10-16T19:19:59.406Z,2.42
2022-10-16T19:22:40.861Z,2.70
2022-10-16T19:25:10.072Z,3.33
2022-10-16T19:27:38.265Z,3.50
2022-10-16T19:30:07.931Z,2.95
2022-10-16T19:32:36.286Z,2.47
2022-10-16T19:35:05.048Z,2.60
2022-10-16T19:37:34.636Z,2.50
2022-10-16T19:40:02.897Z,2.20
2022-10-16T19:42:31.196Z,2.20
2022-10-16T19:44:59.453Z,2.00
2022-10-16T19:47:27.736Z,2.50
2022-10-16T19:49:56.006Z,2.50
2022-10-16T19:52:24.674Z,2.25
2022-10-16T19:54:57.572Z,1.95
2022-10-16T19:57:26.138Z,2.35
2022-10-16T19:59:54.927Z,2.20
2022-10-16T20:02:23.191Z,2.60
2022-10-16T20:04:51.571Z,2.80
2022-10-16T20:07:21.051Z,2.50
2022-10-16T20:09:49.393Z,3.03
2022-10-16T20:12:19.138Z,2.75
2022-10-16T20:14:47.751Z,2.60
2022-10-16T20:17:16.047Z,2.42
2022-10-16T20:19:44.496Z,1.92
2022-10-16T20:22:12.774Z,2.47
2022-10-16T20:24:41.096Z,4.80
2022-10-16T20:27:09.388Z,4.00
2022-10-16T20:29:39.235Z,4.00
2022-10-16T20:32:07.474Z,3.70
2022-10-16T20:34:35.782Z,3.90
2022-10-16T20:37:04.095Z,3.50
2022-10-16T20:39:32.577Z,3.45
2022-10-16T20:42:00.818Z,3.03
2022-10-16T20:44:29.060Z,3.00
2022-10-16T20:46:59.113Z,3.10
2022-10-16T20:49:40.223Z,1.90
2022-10-16T20:52:09.144Z,2.53
2022-10-16T20:54:37.455Z,3.35
2022-10-16T20:57:05.765Z,3.72
2022-10-16T20:59:34.134Z,3.05
2022-10-16T21:02:05.556Z,2.05
2022-10-16T21:04:33.881Z,3.40
2022-10-16T21:07:02.066Z,3.17
2022-10-16T21:09:30.398Z,3.10
2022-10-16T21:11:58.707Z,2.97
2022-10-16T21:14:27.340Z,2.63
2022-10-16T21:16:55.627Z,2.70
2022-10-16T21:19:25.365Z,3.22
2022-10-16T21:21:53.683Z,3.72
2022-10-16T21:24:21.954Z,3.25
2022-10-16T21:26:50.766Z,3.40
2022-10-16T21:29:19.167Z,4.22
2022-10-16T21:31:47.708Z,3.65
2022-10-16T21:34:16.184Z,3.40
2022-10-16T21:36:45.876Z,3.22
2022-10-16T21:39:15.668Z,2.73
2022-10-16T21:41:45.121Z,3.65
2022-10-16T21:44:13.924Z,3.53
2022-10-16T21:46:43.548Z,3.17
2022-10-16T21:49:13.856Z,2.70
2022-10-16T21:51:44.462Z,2.40
2022-10-16T21:54:16.008Z,2.50
2022-10-16T21:56:44.290Z,2.28
2022-10-16T21:59:13.074Z,2.10
2022-10-16T22:01:41.844Z,1.80
2022-10-16T22:04:11.375Z,1.70
2022-10-16T22:06:39.785Z,1.77
2022-10-16T22:09:08.168Z,2.00
2022-10-16T22:11:38.635Z,2.30
2022-10-16T22:14:07.844Z,2.28
2022-10-16T22:16:37.142Z,2.60
2022-10-16T22:19:07.359Z,2.45
2022-10-16T22:21:38.506Z,2.70
2022-10-16T22:24:07.195Z,2.30
2022-10-16T22:26:37.548Z,2.90
2022-10-16T22:29:06.142Z,3.08
2022-10-16T22:31:34.769Z,2.95
2022-10-16T22:34:04.060Z,2.25
2022-10-16T22:36:32.527Z,1.55
2022-10-16T22:39:00.963Z,1.63
2022-10-16T22:41:29.587Z,1.90
2022-10-16T22:43:59.238Z,2.22
2022-10-16T22:46:29.252Z,2.67
2022-10-16T22:48:57.873Z,2.40
2022-10-16T22:51:26.814Z,1.60
2022-10-16T22:53:55.172Z,2.00
2022-10-16T22:56:23.461Z,1.75
2022-10-16T22:58:51.777Z,1.80
2022-10-16T23:01:24.471Z,3.97
2022-10-16T23:03:52.718Z,2.72
2022-10-16T23:06:21.071Z,3.22
2022-10-16T23:08:53.101Z,2.20
2022-10-16T23:11:21.849Z,2.58
2022-10-16T23:13:50.596Z,2.15
2022-10-16T23:16:21.939Z,2.40
2022-10-16T23:18:51.795Z,2.08
2022-10-16T23:21:22.749Z,2.60
2022-10-16T23:23:51.534Z,2.25
2022-10-16T23:26:21.785Z,2.70
2022-10-16T23:28:50.142Z,2.90
2022-10-16T23:31:19.561Z,2.92
2022-10-16T23:33:49.197Z,2.90
2022-10-16T23:36:19.573Z,3.30
2022-10-16T23:38:48.791Z,2.72
2022-10-16T23:41:17.897Z,3.30
2022-10-16T23:43:46.473Z,3.58
2022-10-16T23:46:15.675Z,3.05
2022-10-16T23:48:44.301Z,3.67
2022-10-16T23:51:14.262Z,3.30
2022-10-16T23:53:42.569Z,3.00
2022-10-16T23:56:11.501Z,2.58
2022-10-16T23:58:40.013Z,2.60
